Time;durP1;ratioP1;P1;durP2;ratioP2;P2;SDS_P1;SDS_P2;PMS_P1;PMS_P2;Temp;Humidity;BMP_temperature;BMP_pressure;BME280_temperature;BME280_humidity;BME280_pressure;Samples;Min_cycle;Max_cycle;Signal;HPM_P1;HPM_P2
2021/05/23 07:31:41;;;;;;;7.90;1.27;;;13.00;99.90;;;;;;6144768;22;20087;-88
2021/05/23 07:34:08;;;;;;;4.63;0.88;;;13.20;99.90;;;;;;6180626;23;20095;-87
2021/05/23 07:36:35;;;;;;;6.35;1.23;;;13.30;99.90;;;;;;6180825;23;20017;-87
2021/05/23 07:39:02;;;;;;;10.40;1.30;;;13.50;99.90;;;;;;6180997;23;20050;-89
2021/05/23 07:41:29;;;;;;;7.30;1.27;;;13.50;99.90;;;;;;6179926;23;20080;-89
2021/05/23 07:43:56;;;;;;;7.75;1.33;;;13.60;99.90;;;;;;6182699;23;20017;-95
2021/05/23 07:46:24;;;;;;;6.32;1.27;;;13.50;99.90;;;;;;6180609;23;20049;-88
2021/05/23 07:48:51;;;;;;;7.72;1.17;;;13.60;99.90;;;;;;6180959;23;20030;-93
2021/05/23 07:51:18;;;;;;;5.18;1.00;;;13.70;99.90;;;;;;6180021;23;20072;-90
2021/05/23 07:53:45;;;;;;;7.43;1.02;;;13.80;99.90;;;;;;6180824;23;20125;-89
2021/05/23 07:56:12;;;;;;;5.88;1.13;;;14.00;99.90;;;;;;6180213;23;20021;-88
2021/05/23 07:58:39;;;;;;;7.35;1.23;;;14.00;99.90;;;;;;6180852;23;20016;-87
2021/05/23 08:01:06;;;;;;;8.88;1.65;;;14.00;99.90;;;;;;6179700;23;20017;-91
2021/05/23 08:03:33;;;;;;;9.07;1.30;;;14.00;99.90;;;;;;6178724;23;20309;-89
2021/05/23 08:05:59;;;;;;;11.27;1.33;;;14.00;99.90;;;;;;6180003;23;20017;-85
2021/05/23 08:08:26;;;;;;;12.18;1.15;;;14.10;99.90;;;;;;6179164;23;20029;-86
2021/05/23 08:10:53;;;;;;;7.85;1.17;;;14.10;99.90;;;;;;6180571;23;20092;-89
2021/05/23 08:13:20;;;;;;;7.45;1.58;;;14.10;99.90;;;;;;6181430;23;20091;-89
2021/05/23 08:15:47;;;;;;;11.32;1.55;;;14.00;99.90;;;;;;6180048;23;20076;-93
2021/05/23 08:18:20;;;;;;;8.25;1.40;;;13.90;99.90;;;;;;6180686;23;20379;-88
2021/05/23 08:20:50;;;;;;;8.82;1.52;;;13.90;99.90;;;;;;6180279;23;20021;-89
2021/05/23 08:23:17;;;;;;;9.70;1.52;;;13.80;99.90;;;;;;6179836;23;20095;-86
2021/05/23 08:25:44;;;;;;;6.55;1.48;;;13.70;99.90;;;;;;6180683;23;20025;-90
2021/05/23 08:28:12;;;;;;;7.88;1.42;;;13.60;99.90;;;;;;6179896;23;20514;-91
2021/05/23 08:30:39;;;;;;;13.07;1.55;;;13.60;99.90;;;;;;6179703;23;20016;-91
2021/05/23 08:33:06;;;;;;;7.68;1.52;;;13.60;99.90;;;;;;6179485;23;20017;-89
2021/05/23 08:35:33;;;;;;;10.80;1.33;;;13.50;99.90;;;;;;6180203;23;20017;-91
2021/05/23 08:38:00;;;;;;;6.60;1.50;;;13.50;99.90;;;;;;6180492;23;20342;-89
2021/05/23 08:40:27;;;;;;;7.05;1.23;;;13.60;99.90;;;;;;6180958;23;20017;-88
2021/05/23 08:42:54;;;;;;;6.00;1.48;;;13.60;99.90;;;;;;6180137;23;20025;-86
2021/05/23 08:45:21;;;;;;;6.32;1.10;;;13.70;99.90;;;;;;6181762;23;20029;-86
2021/05/23 08:47:49;;;;;;;5.55;1.27;;;13.70;99.90;;;;;;6180175;23;20020;-89
2021/05/23 08:50:18;;;;;;;9.00;1.63;;;13.80;99.90;;;;;;6179798;23;20025;-86
2021/05/23 08:52:45;;;;;;;6.15;1.25;;;13.90;99.90;;;;;;6180198;23;20024;-86
2021/05/23 08:55:15;;;;;;;5.80;1.50;;;13.80;99.90;;;;;;6179389;23;20481;-88
2021/05/23 08:57:42;;;;;;;9.57;1.50;;;13.80;99.90;;;;;;6180099;23;20028;-85
2021/05/23 09:00:10;;;;;;;8.82;1.65;;;13.70;99.90;;;;;;6179873;23;20083;-90
2021/05/23 09:02:48;;;;;;;8.30;1.50;;;13.70;99.90;;;;;;6179050;23;20024;-87
2021/05/23 09:05:28;;;;;;;8.20;1.40;;;13.70;99.90;;;;;;6179930;23;20025;-87
2021/05/23 09:07:57;;;;;;;10.82;1.73;;;13.60;99.90;;;;;;6182725;23;20017;-91
2021/05/23 09:10:30;;;;;;;11.65;1.40;;;13.60;99.90;;;;;;6180860;23;20075;-88
2021/05/23 09:12:57;;;;;;;9.07;1.50;;;13.70;99.90;;;;;;6181168;23;20472;-88
2021/05/23 09:15:25;;;;;;;10.27;1.40;;;13.70;99.90;;;;;;6182371;23;20017;-93
2021/05/23 09:18:12;;;;;;;7.83;1.53;;;13.70;99.90;;;;;;6181560;23;20018;-90
2021/05/23 09:20:42;;;;;;;17.05;1.73;;;13.80;99.90;;;;;;6183382;23;20027;-92
2021/05/23 09:23:23;;;;;;;13.35;2.00;;;13.70;99.90;;;;;;6182049;23;20025;-90
2021/05/23 09:25:51;;;;;;;10.05;1.40;;;13.80;99.90;;;;;;6183644;23;20028;-93
2021/05/23 09:28:29;;;;;;;7.37;1.67;;;13.90;99.90;;;;;;6185130;23;20375;-93
2021/05/23 09:30:56;;;;;;;10.55;1.75;;;14.10;99.90;;;;;;6182961;23;20017;-86
2021/05/23 09:33:27;;;;;;;8.27;1.65;;;14.30;99.90;;;;;;6182497;23;20522;-90
2021/05/23 09:35:54;;;;;;;6.25;1.20;;;14.40;99.90;;;;;;6180777;23;20405;-91
2021/05/23 09:38:21;;;;;;;7.32;1.30;;;14.50;99.90;;;;;;6183523;23;20017;-88
2021/05/23 09:40:48;;;;;;;8.80;1.45;;;14.60;99.90;;;;;;6183651;23;20024;-89
2021/05/23 09:43:21;;;;;;;8.18;1.50;;;14.70;99.90;;;;;;6184063;23;20080;-92
2021/05/23 09:45:51;;;;;;;6.05;1.05;;;14.90;99.90;;;;;;6183637;23;20062;-90
2021/05/23 09:48:26;;;;;;;8.27;1.52;;;15.00;99.90;;;;;;6182506;23;20024;-91
2021/05/23 09:50:56;;;;;;;9.40;1.45;;;15.10;99.90;;;;;;6182806;23;20025;-91
2021/05/23 09:53:28;;;;;;;7.10;1.25;;;15.20;99.90;;;;;;6182117;23;20397;-88
2021/05/23 09:55:59;;;;;;;10.85;1.48;;;15.20;99.90;;;;;;6182614;23;20076;-92
2021/05/23 09:58:34;;;;;;;9.48;1.67;;;15.30;99.90;;;;;;6181750;23;20040;-91
2021/05/23 10:01:06;;;;;;;8.25;1.50;;;15.30;99.90;;;;;;6182406;23;20024;-88
2021/05/23 10:03:36;;;;;;;9.27;1.67;;;15.30;99.90;;;;;;6183352;23;20523;-93
2021/05/23 10:06:03;;;;;;;11.35;1.80;;;15.20;99.90;;;;;;6182113;23;20063;-88
2021/05/23 10:08:33;;;;;;;9.68;1.60;;;15.20;99.90;;;;;;6181925;23;20017;-88
2021/05/23 10:11:00;;;;;;;10.02;1.50;;;15.30;99.90;;;;;;6182095;23;20032;-88
2021/05/23 10:13:28;;;;;;;11.30;2.10;;;15.30;99.90;;;;;;6183951;23;20017;-88
2021/05/23 10:15:56;;;;;;;10.20;1.67;;;15.30;99.90;;;;;;6182173;23;20080;-88
2021/05/23 10:18:28;;;;;;;10.50;1.90;;;15.30;99.90;;;;;;6182200;23;20248;-86
2021/05/23 10:20:57;;;;;;;11.52;1.83;;;15.50;99.90;;;;;;6182089;23;20032;-90
2021/05/23 10:23:29;;;;;;;9.25;2.28;;;15.50;99.90;;;;;;6181923;23;20436;-88
2021/05/23 10:26:01;;;;;;;7.40;1.50;;;15.50;99.90;;;;;;6182883;23;20378;-87
2021/05/23 10:28:30;;;;;;;10.85;1.95;;;15.50;99.90;;;;;;6181778;23;20392;-86
2021/05/23 10:31:13;;;;;;;13.40;1.83;;;15.50;99.90;;;;;;6181259;23;20700;-88
2021/05/23 10:33:54;;;;;;;16.80;1.80;;;15.40;99.90;;;;;;6182381;23;20468;-88
2021/05/23 10:36:46;;;;;;;7.07;1.23;;;15.40;99.90;;;;;;6181938;23;20017;-87
2021/05/23 10:39:19;;;;;;;13.32;2.20;;;15.40;99.90;;;;;;6181363;23;20028;-86
2021/05/23 10:41:45;;;;;;;12.00;2.10;;;15.50;99.90;;;;;;6181204;23;20077;-88
2021/05/23 10:44:24;;;;;;;11.45;1.83;;;15.40;99.90;;;;;;6183011;23;20072;-89
2021/05/23 10:46:52;;;;;;;13.15;2.00;;;15.50;99.90;;;;;;6183202;23;20016;-87
2021/05/23 10:49:19;;;;;;;9.52;2.05;;;15.60;99.90;;;;;;6180959;23;20084;-90
2021/05/23 10:51:57;;;;;;;11.20;2.03;;;15.70;99.90;;;;;;6182572;23;20017;-89
2021/05/23 10:54:24;;;;;;;7.18;1.73;;;15.80;99.90;;;;;;6182564;23;20025;-88
2021/05/23 10:57:02;;;;;;;9.63;1.60;;;15.90;99.90;;;;;;6183000;23;20021;-89
2021/05/23 10:59:34;;;;;;;10.50;1.60;;;15.90;99.90;;;;;;6181038;23;20029;-84
2021/05/23 11:02:01;;;;;;;9.15;1.52;;;15.80;99.90;;;;;;6181749;23;20021;-86
2021/05/23 11:04:41;;;;;;;9.10;1.67;;;15.70;99.90;;;;;;6181131;23;20017;-87
2021/05/23 11:07:10;;;;;;;13.95;2.00;;;15.60;99.90;;;;;;6180876;23;20021;-84
2021/05/23 11:09:38;;;;;;;11.95;1.90;;;15.50;99.90;;;;;;6181938;23;20392;-88
2021/05/23 11:12:10;;;;;;;9.82;2.20;;;15.40;99.90;;;;;;6180680;23;20760;-86
2021/05/23 11:14:37;;;;;;;12.15;2.47;;;15.30;99.90;;;;;;6180567;23;20021;-86
2021/05/23 11:17:09;;;;;;;12.60;1.85;;;15.20;99.90;;;;;;6180614;23;20371;-85
2021/05/23 11:19:36;;;;;;;9.55;2.08;;;15.30;99.90;;;;;;6181136;23;20021;-88
2021/05/23 11:22:03;;;;;;;12.98;2.03;;;15.20;99.90;;;;;;6180744;23;20040;-85
2021/05/23 11:24:32;;;;;;;14.30;2.15;;;15.00;99.90;;;;;;6181452;23;20013;-85
2021/05/23 11:27:16;;;;;;;14.40;2.50;;;14.90;99.90;;;;;;6182411;23;20388;-86
2021/05/23 11:29:48;;;;;;;10.77;2.47;;;15.00;99.90;;;;;;6181493;23;20021;-88
2021/05/23 11:32:16;;;;;;;12.25;1.67;;;15.00;99.90;;;;;;6181820;23;20017;-86
2021/05/23 11:34:44;;;;;;;7.60;1.73;;;15.00;99.90;;;;;;6182745;23;20021;-85
2021/05/23 11:37:11;;;;;;;9.77;1.90;;;15.10;99.90;;;;;;6182469;23;20017;-86
2021/05/23 11:39:38;;;;;;;10.63;2.13;;;15.10;99.90;;;;;;6183044;23;20020;-85
2021/05/23 11:42:06;;;;;;;11.63;1.85;;;15.20;99.90;;;;;;6182107;23;20017;-86
2021/05/23 11:44:37;;;;;;;12.88;2.13;;;15.30;99.90;;;;;;6180817;23;20473;-85
2021/05/23 11:47:05;;;;;;;10.43;2.38;;;15.40;99.90;;;;;;6182316;23;20013;-85
2021/05/23 11:49:33;;;;;;;7.70;2.00;;;15.40;99.90;;;;;;6182096;23;20017;-85
2021/05/23 11:52:03;;;;;;;13.32;1.83;;;15.40;99.90;;;;;;6182338;23;20014;-85
2021/05/23 11:54:30;;;;;;;11.98;2.38;;;15.40;99.90;;;;;;6180973;23;20530;-86
2021/05/23 11:56:57;;;;;;;12.68;2.13;;;15.50;99.90;;;;;;6180277;23;20079;-87
2021/05/23 11:59:30;;;;;;;12.95;2.10;;;15.50;99.90;;;;;;6141459;23;20029;-89
2021/05/23 12:01:58;;;;;;;14.07;2.33;;;15.50;99.90;;;;;;6180860;23;20040;-86
2021/05/23 12:04:26;;;;;;;12.07;1.95;;;15.40;99.90;;;;;;6180316;23;20369;-85
2021/05/23 12:06:55;;;;;;;13.88;2.33;;;15.40;99.90;;;;;;6180728;23;20364;-88
2021/05/23 12:09:23;;;;;;;10.32;1.83;;;15.30;99.90;;;;;;6181800;23;20024;-86
2021/05/23 12:12:04;;;;;;;8.25;2.15;;;15.40;99.90;;;;;;6180880;23;20024;-86
2021/05/23 12:14:36;;;;;;;11.85;1.92;;;15.40;99.90;;;;;;6179112;23;20021;-85
2021/05/23 12:17:06;;;;;;;7.25;1.75;;;15.50;99.90;;;;;;6181332;23;20104;-85
2021/05/23 12:19:55;;;;;;;7.18;1.60;;;15.60;99.90;;;;;;6182015;23;20020;-84
2021/05/23 12:22:25;;;;;;;10.18;1.77;;;15.60;99.90;;;;;;6179928;23;20072;-86
2021/05/23 12:24:59;;;;;;;10.77;2.20;;;15.70;99.90;;;;;;6181420;23;20422;-84
2021/05/23 12:27:28;;;;;;;14.65;2.08;;;15.70;99.90;;;;;;6179553;23;20075;-85
2021/05/23 12:30:24;;;;;;;10.38;2.22;;;15.60;99.90;;;;;;6180524;23;20356;-85
2021/05/23 12:33:07;;;;;;;13.43;1.70;;;15.60;99.90;;;;;;6149568;23;20043;-85
2021/05/23 12:35:37;;;;;;;11.68;1.63;;;15.50;99.90;;;;;;6150354;23;20073;-85
2021/05/23 12:38:16;;;;;;;11.90;2.55;;;15.40;99.90;;;;;;6150245;23;20014;-84
2021/05/23 12:40:49;;;;;;;16.10;2.35;;;15.40;99.90;;;;;;6142179;23;20013;-83
2021/05/23 12:43:24;;;;;;;10.82;1.80;;;15.40;99.90;;;;;;6149931;23;20029;-85
2021/05/23 12:46:00;;;;;;;10.05;1.83;;;15.40;99.90;;;;;;6150906;23;20033;-85
2021/05/23 12:48:38;;;;;;;13.77;2.05;;;15.50;99.90;;;;;;6152223;23;20060;-84
2021/05/23 12:51:23;;;;;;;12.68;2.20;;;15.60;99.90;;;;;;6152269;23;20096;-83
2021/05/23 12:53:55;;;;;;;10.60;1.85;;;15.60;99.90;;;;;;6151699;23;20463;-87
2021/05/23 12:56:28;;;;;;;10.73;2.15;;;15.50;99.90;;;;;;6150046;23;20033;-84
2021/05/23 12:59:02;;;;;;;11.77;1.67;;;15.50;99.90;;;;;;6151753;23;20491;-85
2021/05/23 13:01:36;;;;;;;13.55;2.38;;;15.50;99.90;;;;;;6151519;23;20017;-86
2021/05/23 13:04:07;;;;;;;11.60;1.70;;;15.50;99.90;;;;;;6151853;23;20330;-86
2021/05/23 13:06:48;;;;;;;15.00;2.47;;;15.40;99.90;;;;;;6115145;23;20037;-86
2021/05/23 13:09:19;;;;;;;12.70;2.10;;;15.30;99.90;;;;;;6152312;23;20076;-86
2021/05/23 13:11:52;;;;;;;12.70;2.15;;;15.30;99.90;;;;;;6153209;23;20017;-85
2021/05/23 13:14:21;;;;;;;16.23;2.60;;;15.20;99.90;;;;;;6152297;23;20018;-84
2021/05/23 13:16:56;;;;;;;9.32;2.45;;;15.10;99.90;;;;;;6152799;23;20018;-84
2021/05/23 13:19:25;;;;;;;11.18;2.28;;;15.00;99.90;;;;;;6152160;23;20017;-84
2021/05/23 13:21:55;;;;;;;13.40;2.30;;;14.80;99.90;;;;;;6153029;23;20350;-85
2021/05/23 13:24:34;;;;;;;10.55;1.95;;;14.70;99.90;;;;;;6149548;23;20021;-87
2021/05/23 13:27:02;;;;;;;12.52;2.05;;;14.70;99.90;;;;;;6155592;23;20022;-86
2021/05/23 13:29:29;;;;;;;11.77;2.20;;;14.60;99.90;;;;;;6159610;23;20449;-87
2021/05/23 13:31:57;;;;;;;12.07;2.20;;;14.50;99.90;;;;;;6175765;23;20040;-85
2021/05/23 13:34:25;;;;;;;11.63;2.33;;;14.40;99.90;;;;;;6183623;23;20024;-84
2021/05/23 13:36:53;;;;;;;14.68;2.00;;;14.40;99.90;;;;;;6182682;23;20021;-85
2021/05/23 13:39:20;;;;;;;17.25;2.33;;;14.30;99.90;;;;;;6183829;23;20476;-90
2021/05/23 13:41:47;;;;;;;14.55;2.80;;;14.20;99.90;;;;;;6185047;23;20095;-88
2021/05/23 13:44:16;;;;;;;14.77;2.75;;;14.10;99.90;;;;;;6182664;23;20013;-88
2021/05/23 13:46:47;;;;;;;15.27;2.70;;;14.00;99.90;;;;;;6183398;23;20519;-84
2021/05/23 13:49:16;;;;;;;7.93;2.00;;;13.70;99.90;;;;;;6181324;23;20326;-84
2021/05/23 13:51:46;;;;;;;11.55;2.70;;;13.50;99.90;;;;;;6182578;23;20021;-81
2021/05/23 13:54:14;;;;;;;7.72;2.10;;;13.20;99.90;;;;;;6182371;23;20091;-84
2021/05/23 13:56:42;;;;;;;8.20;1.73;;;13.00;99.90;;;;;;6182590;23;20401;-86
2021/05/23 13:59:09;;;;;;;10.68;2.42;;;13.00;99.90;;;;;;6180957;23;20017;-85
2021/05/23 14:01:47;;;;;;;10.80;2.40;;;12.90;99.90;;;;;;6178264;23;20017;-86
2021/05/23 14:04:16;;;;;;;14.70;2.50;;;12.90;99.90;;;;;;6179980;23;20017;-84
2021/05/23 14:06:47;;;;;;;9.32;2.28;;;13.00;99.90;;;;;;6180064;23;20076;-85
2021/05/23 14:09:21;;;;;;;14.10;2.60;;;13.00;99.90;;;;;;6179438;23;20067;-84
2021/05/23 14:11:48;;;;;;;13.88;2.38;;;13.00;99.90;;;;;;6183211;23;20025;-82
2021/05/23 14:14:17;;;;;;;13.00;2.53;;;13.00;99.90;;;;;;6184980;23;20025;-85
2021/05/23 14:16:44;;;;;;;14.57;2.92;;;13.00;99.90;;;;;;6183006;23;20036;-83
2021/05/23 14:19:11;;;;;;;17.58;2.65;;;13.00;99.90;;;;;;6180208;23;20021;-86
2021/05/23 14:21:38;;;;;;;20.70;3.40;;;13.00;99.90;;;;;;6180255;23;20064;-86
2021/05/23 14:24:06;;;;;;;17.08;2.80;;;13.10;99.90;;;;;;6179545;23;20083;-85
2021/05/23 14:26:33;;;;;;;21.10;3.20;;;13.10;99.90;;;;;;6179716;23;20024;-82
2021/05/23 14:29:01;;;;;;;17.92;3.05;;;13.20;99.90;;;;;;6179863;23;20490;-85
2021/05/23 14:31:28;;;;;;;18.20;3.03;;;13.20;99.90;;;;;;6180872;23;20322;-84
2021/05/23 14:34:02;;;;;;;23.48;3.35;;;13.20;99.90;;;;;;6181601;23;20064;-84
2021/05/23 14:36:30;;;;;;;20.50;3.03;;;13.20;99.90;;;;;;6184388;23;20013;-83
2021/05/23 14:38:57;;;;;;;21.27;3.50;;;13.30;99.90;;;;;;6184720;23;20024;-86
2021/05/23 14:41:24;;;;;;;19.58;3.55;;;13.20;99.90;;;;;;6182111;23;20068;-84
2021/05/23 14:43:53;;;;;;;21.98;3.40;;;13.30;99.90;;;;;;6182009;23;20021;-85
2021/05/23 14:46:20;;;;;;;17.08;3.97;;;13.30;99.90;;;;;;6184246;23;20071;-85
2021/05/23 14:48:47;;;;;;;23.38;3.65;;;13.30;99.90;;;;;;6183048;23;20017;-83
2021/05/23 14:51:14;;;;;;;17.20;3.22;;;13.20;99.90;;;;;;6183410;23;20017;-81
2021/05/23 14:53:41;;;;;;;19.40;3.78;;;13.20;99.90;;;;;;6181781;23;20075;-86
2021/05/23 14:56:08;;;;;;;21.98;3.97;;;13.20;99.90;;;;;;6181062;23;20032;-83
2021/05/23 14:58:36;;;;;;;17.30;3.63;;;13.20;99.90;;;;;;6182968;23;20013;-82
2021/05/23 15:01:07;;;;;;;19.95;3.17;;;13.20;99.90;;;;;;6182459;23;20472;-85
2021/05/23 15:03:34;;;;;;;24.75;3.88;;;13.20;99.90;;;;;;6185481;23;20025;-82
2021/05/23 15:06:03;;;;;;;16.52;3.10;;;13.20;99.90;;;;;;6186175;23;20351;-83
2021/05/23 15:08:31;;;;;;;;;;;13.10;99.90;;;;;;6184291;23;20017;-82
2021/05/23 15:10:58;;;;;;;27.20;4.28;;;13.10;99.90;;;;;;6183934;23;19920;-83
2021/05/23 15:13:25;;;;;;;23.83;4.25;;;13.10;99.90;;;;;;6181372;23;20083;-83
2021/05/23 15:15:53;;;;;;;28.70;4.07;;;13.10;99.90;;;;;;6181750;23;20027;-83
2021/05/23 15:18:25;;;;;;;27.05;4.65;;;13.00;99.90;;;;;;6182717;23;20025;-81
2021/05/23 15:20:52;;;;;;;41.58;5.55;;;13.10;99.90;;;;;;6181665;23;20017;-82
2021/05/23 15:23:20;;;;;;;38.70;4.68;;;13.00;99.90;;;;;;6181891;23;20060;-84
2021/05/23 15:25:46;;;;;;;28.05;3.90;;;13.00;99.90;;;;;;6181814;23;20025;-83
2021/05/23 15:31:10;;;;;;;24.95;4.30;;;13.00;99.90;;;;;;6182897;23;20579;-84
2021/05/23 15:33:37;;;;;;;21.88;3.25;;;12.90;99.90;;;;;;6181777;23;20036;-83
2021/05/23 15:36:07;;;;;;;32.03;4.22;;;12.90;99.90;;;;;;6181765;23;20125;-83
2021/05/23 15:38:33;;;;;;;20.70;3.53;;;12.90;99.90;;;;;;6182468;23;20025;-84
2021/05/23 15:41:01;;;;;;;29.10;4.15;;;12.80;99.90;;;;;;6181655;23;20024;-82
2021/05/23 15:43:48;;;;;;;26.42;4.03;;;12.80;99.90;;;;;;6180751;23;20053;-82
2021/05/23 15:46:15;;;;;;;23.58;3.95;;;12.80;99.90;;;;;;6183312;23;20310;-84
2021/05/23 15:48:41;;;;;;;25.05;3.65;;;12.80;99.90;;;;;;6181882;23;20389;-85
2021/05/23 15:51:08;;;;;;;22.60;4.32;;;12.70;99.90;;;;;;6181585;23;20025;-85
2021/05/23 15:53:35;;;;;;;24.77;3.65;;;12.60;99.90;;;;;;6183392;23;20021;-86
2021/05/23 15:56:02;;;;;;;27.02;4.15;;;12.60;99.90;;;;;;6181421;23;20483;-85
2021/05/23 15:58:29;;;;;;;30.00;4.57;;;12.60;99.90;;;;;;6181633;23;20344;-83
2021/05/23 16:00:56;;;;;;;26.38;3.95;;;12.60;99.90;;;;;;6181072;23;20310;-86
2021/05/23 16:03:29;;;;;;;23.42;3.88;;;12.50;99.90;;;;;;6178382;23;20072;-86
2021/05/23 16:05:55;;;;;;;23.73;3.65;;;12.50;99.90;;;;;;6178441;23;20396;-85
2021/05/23 16:08:22;;;;;;;28.98;4.75;;;12.50;99.90;;;;;;6177397;23;20030;-83
2021/05/23 16:10:49;;;;;;;26.35;4.47;;;12.50;99.90;;;;;;6179245;23;20043;-85
2021/05/23 16:13:16;;;;;;;29.40;4.72;;;12.50;99.90;;;;;;6177417;23;20103;-85
2021/05/23 16:15:44;;;;;;;29.10;4.57;;;12.50;99.90;;;;;;6180437;23;20017;-84
2021/05/23 16:18:11;;;;;;;27.23;4.25;;;12.50;99.90;;;;;;6178863;23;20087;-85
2021/05/23 16:20:38;;;;;;;24.73;4.43;;;12.50;99.90;;;;;;6178428;23;20025;-84
2021/05/23 16:23:04;;;;;;;34.33;5.85;;;12.50;99.90;;;;;;6179104;23;20024;-86
2021/05/23 16:25:31;;;;;;;27.50;4.70;;;12.40;99.90;;;;;;6178685;23;20734;-84
2021/05/23 16:27:58;;;;;;;33.20;5.55;;;12.50;99.90;;;;;;6180674;23;20021;-84
2021/05/23 16:30:26;;;;;;;26.45;4.53;;;12.50;99.90;;;;;;6183035;23;20059;-86
2021/05/23 16:32:53;;;;;;;21.10;4.68;;;12.50;99.90;;;;;;6182233;23;20017;-84
2021/05/23 16:35:20;;;;;;;26.38;7.22;;;12.50;99.90;;;;;;6183377;23;20025;-86
2021/05/23 16:37:47;;;;;;;27.33;5.82;;;12.50;99.90;;;;;;6181624;23;20032;-84
2021/05/23 16:40:15;;;;;;;29.00;7.45;;;12.50;99.90;;;;;;6181320;23;20373;-86
2021/05/23 16:42:42;;;;;;;30.83;5.05;;;12.50;99.90;;;;;;6182853;23;20076;-85
2021/05/23 16:45:10;;;;;;;31.38;5.13;;;12.50;99.90;;;;;;6182621;23;20044;-83
2021/05/23 16:47:38;;;;;;;29.83;4.70;;;12.50;99.90;;;;;;6183571;23;20024;-85
2021/05/23 16:50:07;;;;;;;25.35;4.78;;;12.50;99.90;;;;;;6181244;23;20017;-88
2021/05/23 16:52:34;;;;;;;30.73;6.43;;;12.50;99.90;;;;;;6183846;23;20103;-87
2021/05/23 16:55:01;;;;;;;31.88;8.70;;;12.40;99.90;;;;;;6181335;23;20036;-86
2021/05/23 16:57:28;;;;;;;28.30;6.25;;;12.40;99.90;;;;;;6183265;23;20049;-88
2021/05/23 16:59:55;;;;;;;30.23;5.97;;;12.40;99.90;;;;;;6181795;23;20017;-89
2021/05/23 17:02:22;;;;;;;25.95;6.35;;;12.40;99.90;;;;;;6183390;23;20025;-85
2021/05/23 17:04:49;;;;;;;24.52;5.03;;;12.40;99.90;;;;;;6183665;23;20017;-87
2021/05/23 17:07:20;;;;;;;31.33;5.28;;;12.30;99.90;;;;;;6182075;23;20079;-87
2021/05/23 17:09:53;;;;;;;24.63;5.10;;;12.30;99.90;;;;;;6182900;23;20017;-88
2021/05/23 17:12:20;;;;;;;22.50;4.57;;;12.30;99.90;;;;;;6182514;23;20087;-89
2021/05/23 17:14:48;;;;;;;37.03;5.78;;;12.30;99.90;;;;;;6182024;23;20013;-85
2021/05/23 17:17:15;;;;;;;29.17;4.63;;;12.30;99.90;;;;;;6181986;23;20017;-85
2021/05/23 17:19:43;;;;;;;24.85;4.75;;;12.30;99.90;;;;;;6183670;23;20017;-90
2021/05/23 17:22:10;;;;;;;30.65;5.53;;;12.30;99.90;;;;;;6181678;23;20087;-86
2021/05/23 17:24:39;;;;;;;26.73;4.93;;;12.30;99.90;;;;;;6182803;23;20544;-86
2021/05/23 17:27:09;;;;;;;36.88;5.97;;;12.30;99.90;;;;;;6182409;23;20374;-87
2021/05/23 17:29:36;;;;;;;26.33;4.28;;;12.30;99.90;;;;;;6183642;23;20013;-88
2021/05/23 17:32:04;;;;;;;25.35;4.57;;;12.30;99.90;;;;;;6182079;23;20025;-87
2021/05/23 17:34:32;;;;;;;29.08;5.00;;;12.30;99.90;;;;;;6183868;23;20384;-87
2021/05/23 17:36:59;;;;;;;34.58;5.03;;;12.20;99.90;;;;;;6184442;23;20304;-85
2021/05/23 17:39:25;;;;;;;33.42;5.40;;;12.20;99.90;;;;;;6181986;23;20021;-87
2021/05/23 17:41:52;;;;;;;36.38;5.97;;;12.20;99.90;;;;;;6180921;23;20468;-88
2021/05/23 17:44:19;;;;;;;37.67;5.20;;;12.20;99.90;;;;;;6179889;23;20035;-90
2021/05/23 17:46:47;;;;;;;33.13;5.50;;;12.20;99.90;;;;;;6182844;23;20017;-88
2021/05/23 17:49:14;;;;;;;40.63;6.13;;;12.20;99.90;;;;;;6180924;23;20471;-88
2021/05/23 17:51:41;;;;;;;28.10;4.90;;;12.20;99.90;;;;;;6181286;23;20017;-88
2021/05/23 17:54:08;;;;;;;36.45;6.07;;;12.20;99.90;;;;;;6182567;23;20013;-87
2021/05/23 17:56:35;;;;;;;38.55;5.82;;;12.20;99.90;;;;;;6181074;23;20056;-84
2021/05/23 17:59:09;;;;;;;38.97;6.57;;;12.10;99.90;;;;;;6183205;23;20091;-86
2021/05/23 18:01:36;;;;;;;27.35;5.53;;;12.20;99.90;;;;;;6180278;23;20527;-88
2021/05/23 18:04:03;;;;;;;38.10;6.05;;;12.20;99.90;;;;;;6181271;23;20515;-88
2021/05/23 18:06:30;;;;;;;36.20;5.97;;;12.10;99.90;;;;;;6181025;23;20056;-90
2021/05/23 18:08:57;;;;;;;44.50;6.85;;;12.20;99.90;;;;;;6181086;23;20021;-86
2021/05/23 18:11:25;;;;;;;35.63;6.22;;;12.20;99.90;;;;;;6180852;23;20075;-87
2021/05/23 18:13:53;;;;;;;35.60;6.00;;;12.20;99.90;;;;;;6183293;23;20020;-87
2021/05/23 18:16:20;;;;;;;39.05;6.18;;;12.20;99.90;;;;;;6182668;23;20552;-85
2021/05/23 18:18:47;;;;;;;34.05;6.18;;;12.20;99.90;;;;;;6184725;23;20020;-86
2021/05/23 18:21:14;;;;;;;36.85;5.97;;;12.20;99.90;;;;;;6182804;23;20075;-88
2021/05/23 18:23:41;;;;;;;33.83;7.15;;;12.20;99.90;;;;;;6183532;23;20013;-88
2021/05/23 18:26:08;;;;;;;41.35;6.65;;;12.20;99.90;;;;;;6184316;23;20021;-87
2021/05/23 18:28:35;;;;;;;40.33;6.45;;;12.20;99.90;;;;;;6184468;23;20017;-87
2021/05/23 18:31:07;;;;;;;32.28;6.68;;;12.20;99.90;;;;;;6182193;23;20503;-86
2021/05/23 18:33:33;;;;;;;27.13;5.07;;;12.20;99.90;;;;;;6184868;23;20017;-85
2021/05/23 18:36:01;;;;;;;40.55;6.22;;;12.10;99.90;;;;;;6183229;23;20472;-85
2021/05/23 18:38:28;;;;;;;25.35;5.90;;;12.10;99.90;;;;;;6182550;23;20047;-87
2021/05/23 18:41:09;;;;;;;30.33;5.45;;;12.10;99.90;;;;;;6182762;23;20029;-85
2021/05/23 18:43:36;;;;;;;35.28;12.95;;;12.10;99.90;;;;;;6182739;23;20063;-85
2021/05/23 18:46:03;;;;;;;32.00;7.90;;;12.10;99.90;;;;;;6183385;23;20024;-86
2021/05/23 18:48:32;;;;;;;44.65;16.90;;;12.10;99.90;;;;;;6183975;23;20068;-86
2021/05/23 18:50:59;;;;;;;47.88;21.38;;;12.10;99.90;;;;;;6182895;23;20025;-88
2021/05/23 18:53:27;;;;;;;26.00;6.00;;;12.10;99.90;;;;;;6182308;23;20021;-87
2021/05/23 18:55:55;;;;;;;29.65;3.88;;;12.10;99.90;;;;;;6184513;23;20017;-82
2021/05/23 18:58:22;;;;;;;8.55;1.52;;;11.90;99.90;;;;;;6182299;23;20021;-84
2021/05/23 19:00:49;;;;;;;8.00;1.85;;;11.60;99.90;;;;;;6183475;23;20209;-83
2021/05/23 19:03:16;;;;;;;7.65;1.65;;;11.30;99.90;;;;;;6181930;23;20025;-84
2021/05/23 19:05:43;;;;;;;5.63;1.10;;;11.10;99.90;;;;;;6180203;23;20021;-84
2021/05/23 19:08:10;;;;;;;8.93;1.35;;;11.00;99.90;;;;;;6181254;23;20476;-84
2021/05/23 19:10:37;;;;;;;5.90;1.52;;;10.90;99.90;;;;;;6180060;23;20032;-81
2021/05/23 19:13:06;;;;;;;8.27;1.92;;;10.90;99.90;;;;;;6181181;23;20349;-83
2021/05/23 19:15:33;;;;;;;10.82;2.28;;;10.90;99.90;;;;;;6174914;23;20017;-83
2021/05/23 19:18:00;;;;;;;11.90;2.40;;;10.90;99.90;;;;;;6175631;23;20738;-84
2021/05/23 19:20:32;;;;;;;7.00;1.38;;;10.90;99.90;;;;;;6174194;23;20108;-84
2021/05/23 19:22:59;;;;;;;10.32;1.77;;;10.90;99.90;;;;;;6177421;23;20021;-82
2021/05/23 19:25:29;;;;;;;7.63;1.92;;;10.80;99.90;;;;;;6176726;23;20017;-87
2021/05/23 19:27:56;;;;;;;8.90;2.40;;;10.80;99.90;;;;;;6175157;23;20096;-83
2021/05/23 19:30:27;;;;;;;15.65;2.35;;;10.80;99.90;;;;;;6175756;23;20559;-83
2021/05/23 19:32:58;;;;;;;14.45;2.17;;;10.80;99.90;;;;;;6177046;23;20033;-84
2021/05/23 19:35:28;;;;;;;22.80;2.75;;;10.80;99.90;;;;;;6177103;23;20091;-87
2021/05/23 19:37:56;;;;;;;16.98;3.10;;;10.80;99.90;;;;;;6175081;23;20024;-84
2021/05/23 19:40:25;;;;;;;17.10;3.30;;;10.80;99.90;;;;;;6177133;23;20048;-85
2021/05/23 19:42:53;;;;;;;22.38;3.70;;;10.80;99.90;;;;;;6177697;23;20029;-86
2021/05/23 19:45:20;;;;;;;19.88;3.03;;;10.80;99.90;;;;;;6175367;23;20112;-85
2021/05/23 19:47:47;;;;;;;23.48;4.20;;;10.70;99.90;;;;;;6175175;23;20028;-85
2021/05/23 19:50:14;;;;;;;13.88;3.35;;;10.80;99.90;;;;;;6176653;23;20024;-88
2021/05/23 19:52:42;;;;;;;15.38;2.65;;;10.80;99.90;;;;;;6176941;23;20025;-86
2021/05/23 19:55:18;;;;;;;16.25;3.70;;;10.70;99.90;;;;;;6175996;23;20021;-85
2021/05/23 19:57:46;;;;;;;18.80;3.50;;;10.80;99.90;;;;;;6175336;23;20021;-85
2021/05/23 20:00:18;;;;;;;15.15;2.72;;;10.70;99.90;;;;;;6177398;23;20021;-86
2021/05/23 20:02:45;;;;;;;15.07;2.50;;;10.70;99.90;;;;;;6179995;23;20017;-85
2021/05/23 20:05:13;;;;;;;17.80;3.03;;;10.70;99.90;;;;;;6177842;23;20021;-84
2021/05/23 20:07:42;;;;;;;12.38;3.33;;;10.70;99.90;;;;;;6178316;23;20024;-83
2021/05/23 20:10:15;;;;;;;17.08;4.10;;;10.70;99.90;;;;;;6179747;23;20019;-83
2021/05/23 20:12:43;;;;;;;14.55;3.35;;;10.70;99.90;;;;;;6178526;23;20095;-86
2021/05/23 20:15:11;;;;;;;15.90;3.17;;;10.80;99.90;;;;;;6177303;23;20482;-85
2021/05/23 20:17:39;;;;;;;10.65;2.63;;;10.80;99.90;;;;;;6177873;23;20025;-84
2021/05/23 20:20:08;;;;;;;17.45;3.10;;;10.80;99.90;;;;;;6177774;23;20021;-84
2021/05/23 20:22:36;;;;;;;13.52;3.08;;;10.80;99.90;;;;;;6179160;23;20544;-83
2021/05/23 20:25:09;;;;;;;16.65;3.22;;;10.80;99.90;;;;;;6178617;23;20021;-84